»·PEaware :: KLM691 KSFO-KSAN

KLM691 :: KSFO-KSAN

FLIGHT INFORMATION

Flight Status: Arrived
Operator:
KLM
More flights by this operator :: More flights under this callsign
Pilot: Thomas N. (7419)
Aircraft: BOEING 777-300
(B773)
More flights by this aircraft type
Origin: KSFO San Francisco Intl
United States
Destination: KSAN San Diego Intl-Lindbergh
United States
More flights between these airports :: More routes between these airports
Route: +OFFSH9 MCKEY LAX BAYVU3
File this flight plan on PilotEdge
Remarks:
Altitude:
(Current/Filed)
37,000ft
Speed:
(Current/Filed)
450kts
Departed: 24-Nov-15 06:34 PM
Arrived: 24-Nov-15 07:48 PM
Distance/Time
Traveled:
388nm/1:14
Distance/Time
To Go:
Arrived

Flight Plot

Page will automatically refresh every two minutes.


Map Options




Map Legend


Flown Route
Filed Route
Departure Airport
Arrival Airport
Navaid (VOR, NDB)
Fix

Horizontal Profiles

Position Reports

Time Latitude Longitude Heading Altitude Ground
Speed
24-Nov-15 18:02 37.629131 -122.381924 297 31ft 0kts
24-Nov-15 18:03 37.629131 -122.381924 297 31ft 0kts
24-Nov-15 18:04 37.629131 -122.381924 297 31ft 0kts
24-Nov-15 18:05 37.629131 -122.381924 297 31ft 0kts
24-Nov-15 18:06 37.629131 -122.381924 297 31ft 0kts
24-Nov-15 18:07 37.629131 -122.381924 297 31ft 0kts
24-Nov-15 18:08 37.629131 -122.381924 297 31ft 0kts
24-Nov-15 18:09 37.629131 -122.381924 297 31ft 0kts
24-Nov-15 18:10 37.629131 -122.381924 297 31ft 0kts
24-Nov-15 18:11 37.629131 -122.381924 297 31ft 0kts
24-Nov-15 18:12 37.629131 -122.381924 297 31ft 0kts
24-Nov-15 18:13 37.629131 -122.381924 297 31ft 0kts
24-Nov-15 18:14 37.629131 -122.381924 297 31ft 0kts
24-Nov-15 18:15 37.629131 -122.381924 297 31ft 0kts
24-Nov-15 18:16 37.629131 -122.381924 297 31ft 0kts
24-Nov-15 18:17 37.628997 -122.381087 228 31ft 2kts
24-Nov-15 18:18 37.629111 -122.380984 207 31ft 0kts
24-Nov-15 18:19 37.629111 -122.380984 207 31ft 0kts
24-Nov-15 18:20 37.629111 -122.380984 207 31ft 0kts
24-Nov-15 18:21 37.629111 -122.380984 207 31ft 0kts
24-Nov-15 18:22 37.628169 -122.381634 210 31ft 17kts
24-Nov-15 18:23 37.625585 -122.382153 116 31ft 8kts
24-Nov-15 18:24 37.623395 -122.381491 191 31ft 10kts
24-Nov-15 18:25 37.620656 -122.383285 185 31ft 10kts
24-Nov-15 18:26 37.618610 -122.379607 117 30ft 21kts
24-Nov-15 18:27 37.615226 -122.380568 207 30ft 25kts
24-Nov-15 18:28 37.609828 -122.383934 164 31ft 9kts
24-Nov-15 18:29 37.609383 -122.383484 121 31ft 0kts
24-Nov-15 18:30 37.609283 -122.383277 120 31ft 0kts
24-Nov-15 18:31 37.611996 -122.380260 27 31ft 73kts
24-Nov-15 18:32 37.663526 -122.350610 14 2676ft 248kts
24-Nov-15 18:33 37.726099 -122.379255 303 4278ft 279kts
24-Nov-15 18:34 37.707475 -122.468778 214 5194ft 319kts
24-Nov-15 18:35 37.650162 -122.538809 232 5353ft 268kts
24-Nov-15 18:36 37.604508 -122.614234 233 7337ft 277kts
24-Nov-15 18:37 37.558347 -122.694103 234 9516ft 286kts
24-Nov-15 18:38 37.491665 -122.724928 154 11677ft 296kts
24-Nov-15 18:39 37.416318 -122.681391 155 13784ft 305kts
24-Nov-15 18:40 37.343113 -122.625761 145 15900ft 315kts
24-Nov-15 18:41 37.263485 -122.556811 145 17477ft 375kts
24-Nov-15 18:42 37.176686 -122.482993 145 18779ft 380kts
24-Nov-15 18:43 37.087453 -122.407389 145 19958ft 412kts
24-Nov-15 18:44 36.987953 -122.323357 145 22929ft 443kts
24-Nov-15 18:45 36.883229 -122.235209 145 26349ft 466kts
24-Nov-15 18:46 36.791920 -122.158597 145 29159ft 487kts
24-Nov-15 18:47 36.658635 -122.047177 145 32911ft 507kts
24-Nov-15 18:48 36.560862 -121.965742 145 35587ft 501kts
24-Nov-15 18:49 36.450373 -121.873758 146 36997ft 503kts
24-Nov-15 18:50 36.344832 -121.785895 146 36982ft 496kts
24-Nov-15 18:51 36.230873 -121.691897 146 37000ft 493kts
24-Nov-15 18:52 36.116498 -121.597917 146 37000ft 493kts
24-Nov-15 18:53 36.002399 -121.504498 146 37000ft 493kts
24-Nov-15 18:54 35.888485 -121.411558 146 37000ft 493kts
24-Nov-15 18:55 35.774139 -121.318592 146 37000ft 493kts
24-Nov-15 18:56 35.659915 -121.226047 146 37000ft 493kts
24-Nov-15 18:57 35.545454 -121.133634 146 37000ft 493kts
24-Nov-15 18:58 35.447536 -121.020513 123 37008ft 493kts
24-Nov-15 18:59 35.369806 -120.883047 124 36999ft 493kts
24-Nov-15 19:00 35.291832 -120.744769 124 37000ft 493kts
24-Nov-15 19:01 35.213585 -120.607482 125 37000ft 493kts
24-Nov-15 19:02 35.135050 -120.470281 125 37000ft 493kts
24-Nov-15 19:03 35.056470 -120.333537 125 37000ft 493kts
24-Nov-15 19:04 34.977650 -120.196904 125 37000ft 493kts
24-Nov-15 19:05 34.898775 -120.060702 125 37000ft 493kts
24-Nov-15 19:06 34.819510 -119.924354 125 37000ft 493kts
24-Nov-15 19:07 34.740838 -119.788626 125 37000ft 493kts
24-Nov-15 19:08 34.661634 -119.653279 125 37000ft 493kts
24-Nov-15 19:09 34.581935 -119.517735 125 37000ft 493kts
24-Nov-15 19:10 34.504824 -119.387115 125 35523ft 477kts
24-Nov-15 19:11 34.428609 -119.258422 125 34192ft 467kts
24-Nov-15 19:12 34.353630 -119.132251 125 32989ft 458kts
24-Nov-15 19:13 34.279831 -119.008517 125 31781ft 450kts
24-Nov-15 19:14 34.209639 -118.891214 126 30613ft 442kts
24-Nov-15 19:15 34.138673 -118.772215 126 29409ft 433kts
24-Nov-15 19:16 34.068439 -118.655576 126 28202ft 425kts
24-Nov-15 19:17 33.999685 -118.541799 126 27000ft 417kts
24-Nov-15 19:18 33.933182 -118.433250 130 25703ft 409kts
24-Nov-15 19:19 33.857237 -118.334646 133 24415ft 401kts
24-Nov-15 19:20 33.783175 -118.239749 133 23137ft 393kts
24-Nov-15 19:21 33.709748 -118.145984 133 21846ft 385kts
24-Nov-15 19:22 33.637077 -118.053431 133 20543ft 378kts
24-Nov-15 19:23 33.565779 -117.962862 133 19242ft 370kts
24-Nov-15 19:24 33.498249 -117.877135 133 17987ft 363kts
24-Nov-15 19:25 33.429882 -117.790305 133 16689ft 356kts
24-Nov-15 19:26 33.362442 -117.705247 133 15388ft 350kts
24-Nov-15 19:27 33.297351 -117.623386 133 15000ft 335kts
24-Nov-15 19:28 33.228133 -117.548595 142 15002ft 336kts
24-Nov-15 19:29 33.155796 -117.484285 143 14994ft 310kts
24-Nov-15 19:30 33.083984 -117.426475 146 13501ft 313kts
24-Nov-15 19:31 33.013653 -117.370269 146 11319ft 293kts
24-Nov-15 19:32 32.947008 -117.317113 146 8978ft 285kts
24-Nov-15 19:33 32.881743 -117.265052 146 7005ft 279kts
24-Nov-15 19:34 32.819042 -117.213418 132 6995ft 276kts
24-Nov-15 19:35 32.794002 -117.128125 104 6500ft 275kts
24-Nov-15 19:36 32.776117 -117.041089 103 5144ft 272kts
24-Nov-15 19:37 32.758723 -116.954937 103 5000ft 269kts
24-Nov-15 19:38 32.741487 -116.868991 103 5000ft 269kts
24-Nov-15 19:39 32.690805 -116.826894 204 4649ft 268kts
24-Nov-15 19:40 32.643777 -116.885300 276 4013ft 264kts
24-Nov-15 19:41 32.682610 -116.958020 317 3999ft 265kts
24-Nov-15 19:42 32.702395 -117.028759 269 3977ft 217kts
24-Nov-15 19:43 32.710611 -117.101652 286 2341ft 225kts
24-Nov-15 19:44 32.725798 -117.158096 287 569ft 156kts
24-Nov-15 19:45 32.733653 -117.190240 279 35ft 17kts
24-Nov-15 19:46 32.731926 -117.195702 245 35ft 0kts

Navigation Log

Ident Type
Flight plan parsing failed, navigation log unavailable